Dell, AR (72426)

10:10 AM CDT on July 11, 2014 (GMT -0500)
Blytheville Municipal (KHKA) Elev 256 ft | 35.94 °N, 89.83 °W | Change Station

Current weather conditions updated 17 minutes ago

Overcast
Overcast
83 °F
Feels Like 85 °F
N
6
Wind Variable Wind from SE

Today is forecast to be nearly the same temperature as yesterday.

Today
High -- | Low -- °F
--% Chance of Precip.
Yesterday
High -- | Low -- °F
Precip. -- in
5:52 AM 8:18 PM
Waxing Gibbous, 99% visible
Pressure 30.17 in
Visibility 10.0 miles
Clouds Overcast 11000 ft
Heat Index 85 °F
Dew Point 67 °F
Humidity 58%
Rainfall 0.00 in
Snow Depth Not available.
UV 2 out of 12
Pollen 3.20 out of 12
Air Quality Not available.
Flu Activity No Activity
METAR KHKA 111453Z AUTO 14005KT 10SM OVC110 28/19 A3018 RMK AO2 SLP216 T02830194 51014

More Conditions Fewer Conditions

Pressure 30.17 in
Visibility 10.0 miles
Clouds Overcast 11000 ft
Heat Index 85 °F
Dew Point 67 °F
Humidity 58%
Rainfall 0.00 in
Snow Depth Not available.
UV 2 out of 12
Pollen 3.20 out of 12
Air Quality Not available.
Flu Activity No Activity
METAR KHKA 111453Z AUTO 14005KT 10SM OVC110 28/19 A3018 RMK AO2 SLP216 T02830194 51014

More Conditions Fewer Conditions

10-Day Weather Forecast

Almanac

Astronomy

Jul. 11, 2014 Rise Set
Actual Time 5:52 AM CDT 8:18 PM CDT
Civil Twilight 5:23 AM CDT 8:47 PM CDT
Nautical Twilight 4:46 AM CDT 9:24 PM CDT
Astronomical Twilight 4:06 AM CDT 10:04 PM CDT
Moon 7:31 PM CDT 5:03 AM CDT
Length of Visible Light 15h 24m
Length of Day
14h 25m
Tomorrow will be 0m 59s shorter.
Waxing Gibbous, 99% of the Moon is Illuminated
Today
Waxing Gibbous
Jul 12
Full
Jul 18
Last Quarter
Jul 26
New
Aug 3
First Quarter

Today's Extremes

State Highs State Lows

Community

WunderPhotos

Upload Photos

1,732,499 photos uploaded!

WunderBlogs® & News

Nearby

Snow Depth

Station Depth Elevation
No new snow has been reported.

Earthquake Activity

City Distance Mag. Time & Date
No recent earthquake activity has been reported nearby.
Minimum magnitude displayed is 2.5.

Coastal Water Temperatures

Place Temperature
No Stations Reporting

Nearby Weather Stations

Station Location Temp. Heat Index Dew Point Humidity Wind Precip. Elev Updated Type
KC0UFP WX, Kennett, MO 87.3 °F 96 °F 74 °F 65% SSE  at  0.0 mph - / hr 262 ft 10:03 AM CDT Normal

Show More Stations Show Fewer Stations